• Join FlightAware (Why Join?)
  • Login
  • US Flag GB Flag 
01:10 EDT


 

Airport Tracker/Info


-or-


 

Live Flight TrackerFlight Track Log ✈ GJS6221 ✈ 19-Aug-2013 ✈ CYUL - KLGA

Flight Track Log - Related Links

Times and Time Zones

All times are in EDT time to prevent confusion due to time zone crossing. See the GJS6221 flight status page for this flight to view local times or setup timezone preferences in your user account.

Time Position Orientation Groundspeed Altitude Reporting Facility
EDT Latitude Longitude Course Direction KTS MPH feet Rate Location/Type
07:05 45.4500 -73.7500 90° East 20 23 100  Level Montreal Center
07:06 45.4500 -73.7167 90° East 20 23 100  Level Montreal Center
07:07 45.4500 -73.7167 90° East 10 12 100  Level Montreal Center
07:10 45.4667 -73.7167 360° North 20 23 100  Level Montreal Center
07:12 45.3052 -73.8448 215° Southwest  Level FlightAware Approximate
07:17 45.4667 -73.7000 180° South 30 35 100  Level Montreal Center
07:18 45.4500 -73.7167 215° Southwest 170 196 700 1,260 Climbing Montreal Center
07:19 44.6624 -74.1234 173° South  Level FlightAware Approximate
07:19 45.4000 -73.7667 215° Southwest 190 219 2,700  Level Montreal Center
07:20 44.5649 -74.1057 173° South  Level FlightAware Approximate
07:20 45.3500 -73.8167 215° Southwest 240 276 5,500  Level Montreal Center
07:21 44.4671 -74.0917 175° South  Level FlightAware Approximate
07:21 45.2833 -73.8500 199° South 280 322 7,900  Level Montreal Center
07:22 44.3696 -74.0757 170° South  Level FlightAware Approximate
07:22 45.2000 -73.9000 203° Southwest 300 345 10,700  Level Montreal Center
07:23 45.1000 -73.8833 173° South 360 414 12,100 1,500 Climbing Montreal Center
07:24 45.0000 -73.8833 180° South 390 449 13,700 1,680 Climbing Montreal Center
07:25 44.8833 -73.8833 180° South 410 472 15,500 1,800 Climbing Montreal Center
07:26 44.7667 -73.8667 174° South 430 495 17,300 1,800 Climbing Montreal Center
07:27 44.6333 -73.8833 185° South 430 495 19,100 1,800 Climbing Montreal Center
07:28 44.5167 -73.8500 168° South 430 495 21,000 1,800 Climbing Montreal Center
07:29 44.4000 -73.8667 186° South 430 495 22,700 1,740 Climbing Montreal Center
07:30 44.2833 -73.8667 180° South 440 506 24,500 1,620 Climbing Montreal Center
07:31 44.1667 -73.8500 174° South 430 495 26,000 1,440 Climbing Montreal Center
07:32 44.0333 -73.8500 180° South 430 495 27,400 1,200 Climbing Montreal Center
07:33 43.9333 -73.8333 173° South 430 495 28,500 960 Climbing Montreal Center
07:34 43.8000 -73.8333 180° South 440 506 29,400 960 Climbing Montreal Center
07:35 43.6833 -73.8500 186° South 450 518 30,500 1,080 Climbing Montreal Center
07:36 43.5667 -73.8167 168° South 450 518 31,600 720 Climbing Montreal Center
07:37 43.4333 -73.8333 185° South 450 518 32,000 -600 Climbing Montreal Center
07:39 43.2778 -73.8233 177° South 448 516 30,200 -1,560 Descending Boston Center
07:40 43.1631 -73.8206 179° South 442 509 28,400 -1,860 Descending Boston Center
07:41 43.0464 -73.8181 179° South 429 494 26,600 -1,620 Descending Boston Center
07:42 42.9214 -73.8125 178° South 417 480 25,200 -960 Descending Boston Center
07:43 42.8069 -73.8069 178° South 417 480 24,700 -720 Descending Boston Center
07:44 42.6861 -73.7931 175° South 429 494 23,800 -1,200 Descending Boston Center
07:45 42.5803 -73.7708 171° South 437 503 22,400 -1,500 Descending Boston Center
07:46 42.4594 -73.7486 172° South 437 503 20,900 -1,500 Descending Boston Center
07:47 42.3431 -73.7239 171° South 437 503 19,400 -1,440 Descending Boston Center
07:48 42.2225 -73.6989 171° South 437 503 18,000 -720 Descending Boston Center
07:49 42.1122 -73.6742 171° South 426 490 18,000  Level Boston Center
07:50 41.9917 -73.6608 175° South 402 463 18,000 -120 Level Boston Center
07:51 41.8847 -73.7006 195° South 396 456 17,800 -720 Descending Boston Center
07:52 41.7781 -73.7344 193° South 396 456 16,700 -1,080 Descending Boston Center
07:53 41.6675 -73.7544 188° South 402 463 15,700 -1,500 Descending Boston Center
07:54 41.5000 -73.7667 183° South 336 387 12,900 -1,920 Descending New York TRACON
07:55 41.4167 -73.7833 189° South 303 349 10,800 -2,100 Descending New York TRACON
07:56 41.3333 -73.7833 180° South 293 337 8,800 -1,860 Descending New York TRACON
07:57 41.2667 -73.7333 151° Southeast 289 333 7,100 -1,500 Descending New York TRACON
07:58 41.2000 -73.6667 143° Southeast 283 326 5,900 -1,500 Descending New York TRACON
07:59 41.1333 -73.6167 151° Southeast 280 322 4,200 -960 Descending New York TRACON
08:00 41.0667 -73.6333 191° South 260 299 4,000 -120 Descending New York TRACON
08:01 41.0167 -73.6833 217° Southwest 263 303 4,000 -540 Level New York TRACON
08:02 40.9500 -73.7333 210° Southwest 251 289 3,000 -600 Descending New York TRACON
08:03 40.9000 -73.7667 207° Southwest 189 217 2,900 -600 Descending New York TRACON
08:04 40.8667 -73.8167 229° Southwest 173 199 1,800 -900 Descending New York TRACON
08:05 40.8333 -73.8333 201° Southwest 139 160 1,100 -780 Descending New York TRACON
08:06 40.8000 -73.8667 217° Southwest 135 155 400 -720 Descending New York TRACON
08:08 40.7772 -73.8726 180° South  Level Estimated
08:15 40.7772 -73.8726 180° South  Level Estimated
08:16 40.7772 -73.8726 180° South  Level Estimated